Time;durP1;ratioP1;P1;durP2;ratioP2;P2;SDS_P1;SDS_P2;PMS_P1;PMS_P2;Temp;Humidity;BMP_temperature;BMP_pressure;BME280_temperature;BME280_humidity;BME280_pressure;Samples;Min_cycle;Max_cycle;Signal;HPM_P1;HPM_P2
2022/10/03 00:00:12;;;;;;;9.65;4.90;;;;;;;10.40;82.35;102338.56;3579218;40;20108;-63
2022/10/03 00:02:50;;;;;;;17.13;5.35;;;;;;;10.39;82.07;102336.78;3580531;40;20125;-63
2022/10/03 00:05:41;;;;;;;15.75;5.25;;;;;;;9.15;82.30;102125.50;3581069;40;20060;-63
2022/10/03 00:08:34;;;;;;;12.60;5.47;;;;;;;10.40;82.26;102333.19;3580633;40;20052;-63
2022/10/03 00:11:31;;;;;;;15.90;5.32;;;;;;;10.40;82.59;102335.88;3580135;40;20065;-63
2022/10/03 00:14:39;;;;;;;17.05;5.70;;;;;;;9.70;81.87;102220.16;3578714;40;20053;-63
2022/10/03 00:17:20;;;;;;;14.90;5.20;;;;;;;10.36;82.50;102333.34;3579021;40;20414;-62
2022/10/03 00:20:19;;;;;;;10.73;5.05;;;;;;;10.32;82.27;102329.03;3580148;40;20063;-63
2022/10/03 00:23:07;;;;;;;12.68;5.38;;;;;;;10.30;82.73;102325.50;3579529;40;20056;-63
2022/10/03 00:26:25;;;;;;;16.80;5.50;;;;;;;10.33;82.50;102341.50;3579954;40;20048;-63
2022/10/03 00:29:24;;;;;;;14.25;5.30;;;;;;;10.24;81.72;102340.00;3575175;40;20048;-62
2022/10/03 00:32:11;;;;;;;10.63;5.20;;;;;;;10.28;81.94;102343.50;3580965;40;20064;-63
2022/10/03 00:35:06;;;;;;;13.73;5.07;;;;;;;10.25;82.54;102352.53;3580415;40;20067;-63
2022/10/03 00:38:31;;;;;;;15.60;4.90;;;;;;;10.22;82.48;102358.00;3581409;40;20048;-63
2022/10/03 00:41:12;;;;;;;12.55;5.30;;;;;;;10.20;82.00;102351.81;3578164;40;20076;-63
2022/10/03 00:44:15;;;;;;;12.95;5.22;;;;;;;10.17;82.31;102355.47;3580432;40;20062;-63
2022/10/03 00:47:14;;;;;;;14.75;4.90;;;;;;;10.13;81.35;102358.34;3580625;40;20047;-63
2022/10/03 00:50:27;;;;;;;12.30;5.28;;;;;;;10.05;81.54;102355.03;3581492;40;20044;-63
2022/10/03 00:53:32;;;;;;;16.38;5.80;;;;;;;10.08;82.46;102366.53;3559887;40;20041;-63
2022/10/03 00:56:23;;;;;;;14.38;5.43;;;;;;;9.98;82.13;102349.88;3558931;40;20097;-63
2022/10/03 00:59:29;;;;;;;14.90;5.38;;;;;;;10.05;82.15;102360.41;3579522;40;20048;-62
2022/10/03 01:01:55;;;;;;;12.90;5.07;;;;;;;10.09;82.83;102362.94;3580857;40;20061;-63
2022/10/03 01:04:53;;;;;;;11.20;5.65;;;;;;;10.10;82.60;102361.13;3580773;40;20060;-62
2022/10/03 01:08:17;;;;;;;13.30;5.55;;;;;;;9.89;82.05;102344.81;3577596;40;20391;-63
2022/10/03 01:11:30;;;;;;;14.27;5.60;;;;;;;10.05;81.62;102379.19;3580446;40;20040;-63
2022/10/03 01:14:38;;;;;;;13.25;5.38;;;;;;;10.00;81.87;102382.94;3579077;40;20142;-63
2022/10/03 01:17:34;;;;;;;11.52;5.75;;;;;;;9.98;81.22;102387.47;3542920;40;20220;-63
2022/10/03 01:20:18;;;;;;;13.75;7.13;;;;;;;9.97;82.36;102391.09;3532461;40;20053;-63
2022/10/03 01:23:14;;;;;;;13.20;7.20;;;;;;;9.97;82.44;102387.53;3571319;40;20383;-62
2022/10/03 01:26:19;;;;;;;14.43;7.13;;;;;;;9.96;82.58;102392.03;3581002;40;20472;-63
2022/10/03 01:32:54;;;;;;;11.38;5.35;;;;;;;9.94;82.39;102390.34;3581743;40;20086;-62
2022/10/03 01:35:26;;;;;;;13.15;5.30;;;;;;;9.95;82.83;102392.06;3582424;40;20060;-62
2022/10/03 01:38:04;;;;;;;16.60;6.00;;;;;;;9.95;82.75;102392.06;3579826;40;20048;-63
2022/10/03 01:41:08;;;;;;;11.27;5.32;;;;;;;9.89;81.80;102382.41;3579197;40;20308;-63
2022/10/03 01:43:50;;;;;;;11.88;6.38;;;;;;;9.90;82.47;102388.69;3580990;40;20159;-63
2022/10/03 01:46:22;;;;;;;13.60;5.68;;;;;;;9.19;81.73;102272.03;3578795;40;20117;-64
2022/10/03 01:49:18;;;;;;;12.73;5.88;;;;;;;9.86;82.44;102401.31;3581221;40;20059;-63
2022/10/03 01:52:20;;;;;;;15.55;5.85;;;;;;;8.68;82.57;102195.03;3577089;40;20106;-63
2022/10/03 01:55:24;;;;;;;12.68;5.47;;;;;;;9.89;83.30;102393.16;3580558;40;20067;-63
2022/10/03 01:58:10;;;;;;;14.25;6.35;;;;;;;9.12;82.85;102255.25;3585239;40;20040;-62
2022/10/03 02:01:10;;;;;;;12.88;6.90;;;;;;;8.69;82.41;102188.72;3576769;40;20082;-63
2022/10/03 02:03:51;;;;;;;13.57;6.43;;;;;;;9.87;82.97;102391.47;3587937;40;20311;-62
2022/10/03 02:06:43;;;;;;;9.82;6.15;;;;;;;9.82;82.61;102380.88;3580488;40;20132;-62
2022/10/03 02:09:46;;;;;;;13.18;6.50;;;;;;;9.77;82.81;102377.47;3585255;40;20059;-63
2022/10/03 02:12:47;;;;;;;13.40;5.93;;;;;;;9.81;82.20;102400.63;3579161;40;20062;-62
2022/10/03 02:15:23;;;;;;;12.32;6.00;;;;;;;9.79;82.17;102399.78;3580388;40;20068;-63
2022/10/03 02:18:32;;;;;;;13.30;5.55;;;;;;;9.76;82.14;102402.56;3581332;40;20052;-63
2022/10/03 02:21:25;;;;;;;10.40;5.50;;;;;;;9.73;82.23;102402.66;3572679;40;20461;-63
2022/10/03 02:24:19;;;;;;;11.60;5.85;;;;;;;9.70;82.46;102405.44;3577829;40;20414;-63
2022/10/03 02:27:12;;;;;;;13.10;6.32;;;;;;;9.66;81.73;102406.47;3578002;40;20086;-63
2022/10/03 02:30:22;;;;;;;14.57;5.90;;;;;;;8.88;82.33;102269.44;3577458;40;20060;-62
2022/10/03 02:33:31;;;;;;;16.48;6.75;;;;;;;9.59;83.11;102399.56;3576482;40;20107;-62
2022/10/03 02:36:26;;;;;;;16.58;7.20;;;;;;;9.55;82.14;102396.09;3579033;40;20053;-62
2022/10/03 02:39:09;;;;;;;;;;;;;;;9.51;82.19;102402.47;3577232;40;20121;-63
2022/10/03 02:42:24;;;;;;;12.52;5.85;;;;;;;9.47;82.05;102407.06;3578441;40;19936;-63
2022/10/03 02:45:42;;;;;;;12.13;6.28;;;;;;;9.44;82.89;102400.91;3579366;40;20372;-63
2022/10/03 02:48:30;;;;;;;17.25;8.23;;;;;;;9.48;82.87;102406.16;3576088;40;20446;-63
2022/10/03 02:51:30;;;;;;;12.93;7.00;;;;;;;9.49;82.95;102399.84;3578012;40;20370;-63
2022/10/03 02:54:24;;;;;;;14.02;6.95;;;;;;;9.41;82.44;102390.28;3578967;40;20056;-63
2022/10/03 02:57:29;;;;;;;11.07;6.30;;;;;;;9.37;82.23;102392.19;3578807;40;20044;-63
2022/10/03 03:00:10;;;;;;;14.70;6.80;;;;;;;9.40;82.26;102400.16;3576105;40;20111;-63
2022/10/03 03:03:04;;;;;;;14.35;6.47;;;;;;;9.39;82.42;102394.84;3579742;40;20044;-62
2022/10/03 03:05:55;;;;;;;15.43;7.15;;;;;;;9.38;82.49;102398.44;3580382;40;20057;-63
2022/10/03 03:08:39;;;;;;;10.57;6.53;;;;;;;9.35;81.77;102395.84;3581226;40;20052;-62
2022/10/03 03:11:32;;;;;;;10.18;6.22;;;;;;;9.33;82.48;102398.59;3579127;40;20076;-62
2022/10/03 03:14:25;;;;;;;11.07;6.90;;;;;;;9.31;82.42;102397.75;3580497;40;20064;-62
2022/10/03 03:17:22;;;;;;;14.00;6.93;;;;;;;9.31;83.38;102400.44;3578362;40;20113;-63
2022/10/03 03:20:29;;;;;;;14.00;7.65;;;;;;;9.31;82.84;102400.44;3576394;40;20283;-63
2022/10/03 03:23:37;;;;;;;9.50;6.30;;;;;;;9.30;82.55;102409.41;3563892;40;20061;-63
2022/10/03 03:26:14;;;;;;;12.02;6.55;;;;;;;9.22;82.14;102398.03;3580649;40;20125;-63
2022/10/03 03:29:11;;;;;;;12.70;6.32;;;;;;;9.25;81.87;102403.31;3577934;40;20375;-63
2022/10/03 03:32:00;;;;;;;12.40;6.85;;;;;;;9.27;82.24;102409.50;3579635;40;20294;-63
2022/10/03 03:35:06;;;;;;;10.35;6.35;;;;;;;9.26;82.85;102415.78;3580727;40;20048;-63
2022/10/03 03:37:52;;;;;;;11.98;6.63;;;;;;;9.28;83.04;102422.00;3579775;40;20064;-63
2022/10/03 03:40:49;;;;;;;12.45;6.40;;;;;;;9.26;82.76;102413.09;3577555;40;20059;-63
2022/10/03 03:43:54;;;;;;;14.30;6.60;;;;;;;9.26;83.28;102423.84;3578916;40;20126;-63
2022/10/03 03:47:21;;;;;;;15.38;7.18;;;;;;;9.10;83.08;102407.31;3577962;40;20562;-63
2022/10/03 03:50:10;;;;;;;13.48;6.13;;;;;;;9.22;83.74;102411.44;3579380;40;20064;-63
2022/10/03 03:53:39;;;;;;;16.85;6.95;;;;;;;9.25;83.71;102414.91;3578204;40;20063;-63
2022/10/03 03:56:52;;;;;;;12.23;6.80;;;;;;;9.29;84.01;102419.28;3577911;40;20121;-63
2022/10/03 03:59:40;;;;;;;15.95;7.30;;;;;;;9.32;83.98;102417.41;3579723;40;20052;-63
2022/10/03 04:02:26;;;;;;;14.80;6.85;;;;;;;9.29;83.63;102418.38;3580313;40;20055;-62
2022/10/03 04:05:39;;;;;;;12.85;6.47;;;;;;;9.26;82.60;102423.84;3582134;40;20409;-62
2022/10/03 04:08:39;;;;;;;15.43;6.13;;;;;;;9.22;82.33;102427.53;3588288;40;20048;-63
2022/10/03 04:11:48;;;;;;;18.00;6.50;;;;;;;9.19;82.36;102422.28;3577235;40;20041;-63
2022/10/03 04:14:33;;;;;;;13.25;6.68;;;;;;;8.39;83.03;102295.94;3586514;40;20057;-63
2022/10/03 04:21:16;;;;;;;11.32;6.47;;;;;;;9.17;83.16;102426.81;3580133;40;20051;-63
2022/10/03 04:24:20;;;;;;;11.25;6.40;;;;;;;9.16;82.73;102438.47;3578112;40;20087;-63
2022/10/03 04:26:52;;;;;;;17.75;6.50;;;;;;;9.19;83.57;102431.19;3578030;40;20071;-62
2022/10/03 04:30:02;;;;;;;10.73;6.15;;;;;;;9.17;82.93;102429.50;3579491;40;20089;-63
2022/10/03 04:33:11;;;;;;;14.70;6.50;;;;;;;9.20;83.41;102434.78;3573050;40;20056;-62
2022/10/03 04:36:13;;;;;;;10.85;6.80;;;;;;;9.20;83.82;102434.78;3571434;40;20406;-62
2022/10/03 04:38:58;;;;;;;9.43;6.18;;;;;;;9.21;84.00;102431.16;3578800;40;20068;-62
2022/10/03 04:41:53;;;;;;;10.23;6.20;;;;;;;9.23;83.67;102434.69;3577879;40;20048;-62
2022/10/03 04:45:00;;;;;;;9.23;5.82;;;;;;;9.25;83.84;102431.00;3579163;40;20110;-63
2022/10/03 04:47:47;;;;;;;10.32;5.53;;;;;;;8.84;83.39;102355.34;3577438;40;20049;-63
2022/10/03 04:51:03;;;;;;;10.70;5.57;;;;;;;9.25;83.17;102427.44;3576790;40;20068;-63
2022/10/03 04:53:48;;;;;;;14.02;6.05;;;;;;;9.29;84.06;102429.09;3574434;40;20068;-63
2022/10/03 04:56:30;;;;;;;11.90;5.70;;;;;;;9.32;83.90;102428.16;3577756;40;20064;-63
2022/10/03 04:59:35;;;;;;;10.82;6.05;;;;;;;9.32;83.13;102420.97;3578681;40;20053;-63
2022/10/03 05:02:20;;;;;;;;;;;;;;;9.33;83.27;102430.78;3577107;40;20048;-63
2022/10/03 05:05:18;;;;;;;13.48;6.15;;;;;;;9.33;83.84;102435.28;3578793;40;19946;-63
2022/10/03 05:07:52;;;;;;;11.55;5.53;;;;;;;9.35;83.35;102433.41;3575537;40;20068;-63
2022/10/03 05:11:06;;;;;;;;;;;;;;;9.33;83.65;102429.91;3584732;40;20088;-63
2022/10/03 05:13:57;;;;;;;10.90;5.53;;;;;;;9.20;83.86;102416.00;3579230;40;19936;-63
2022/10/03 05:16:45;;;;;;;10.30;5.90;;;;;;;8.26;83.10;102263.25;3579558;40;20311;-63
2022/10/03 05:19:45;;;;;;;7.05;5.25;;;;;;;9.32;83.78;102445.13;3577696;40;20055;-62
2022/10/03 05:22:36;;;;;;;10.23;5.70;;;;;;;9.31;83.63;102448.75;3576715;40;20498;-62
2022/10/03 05:25:30;;;;;;;12.82;5.70;;;;;;;9.29;82.96;102447.91;3574741;40;20057;-62
2022/10/03 05:28:21;;;;;;;12.70;5.70;;;;;;;9.26;83.71;102446.22;3575900;40;20053;-62
2022/10/03 05:31:13;;;;;;;16.15;5.88;;;;;;;9.25;83.16;102448.91;3576595;40;20142;-62
2022/10/03 05:34:34;;;;;;;9.77;6.20;;;;;;;9.20;83.13;102445.53;3577447;40;20105;-61
2022/10/03 05:37:57;;;;;;;15.90;6.47;;;;;;;7.93;82.83;102240.09;3578019;40;20064;-62
2022/10/03 05:40:27;;;;;;;11.43;6.03;;;;;;;9.15;83.48;102452.81;3565843;40;20410;-62
2022/10/03 05:43:27;;;;;;;12.57;5.90;;;;;;;9.21;83.71;102460.69;3582243;40;20044;-62
2022/10/03 05:46:14;;;;;;;10.70;5.82;;;;;;;9.21;83.05;102463.38;3582169;40;20052;-63
2022/10/03 05:49:15;;;;;;;11.45;6.30;;;;;;;8.47;82.98;102346.63;3577525;40;20048;-64
2022/10/03 05:52:01;;;;;;;11.43;5.68;;;;;;;9.19;83.34;102471.44;3577033;40;20099;-63
2022/10/03 05:55:00;;;;;;;16.27;6.25;;;;;;;9.23;83.60;102467.75;3578949;40;20056;-64
2022/10/03 05:58:04;;;;;;;15.90;7.28;;;;;;;9.25;82.97;102470.38;3578671;40;20056;-64
2022/10/03 06:01:20;;;;;;;12.95;6.45;;;;;;;9.26;83.13;102469.44;3582342;40;20048;-64
2022/10/03 06:04:44;;;;;;;10.52;6.13;;;;;;;9.29;83.51;102475.63;3580666;40;20056;-63
2022/10/03 06:07:41;;;;;;;12.05;6.38;;;;;;;9.35;84.07;102476.34;3577945;40;20056;-62
2022/10/03 06:10:13;;;;;;;13.98;6.65;;;;;;;9.41;84.55;102479.72;3580099;40;20059;-62
2022/10/03 06:13:12;;;;;;;12.45;7.40;;;;;;;9.45;84.17;102483.19;3579160;40;20066;-62
2022/10/03 06:15:59;;;;;;;12.82;6.93;;;;;;;9.53;85.26;102487.41;3576766;40;20060;-62
2022/10/03 06:18:35;;;;;;;16.02;6.63;;;;;;;9.60;85.10;102481.84;3576830;40;20064;-62
2022/10/03 06:21:34;;;;;;;9.20;5.82;;;;;;;9.65;84.53;102482.59;3578775;40;20047;-63
2022/10/03 06:24:11;;;;;;;12.57;6.15;;;;;;;9.72;84.58;102492.22;3577617;40;20052;-63
2022/10/03 06:27:07;;;;;;;13.63;6.95;;;;;;;9.77;84.91;102487.59;3579237;40;22090;-62
2022/10/03 06:30:10;;;;;;;14.73;6.90;;;;;;;9.85;83.82;102487.34;3578896;40;20064;-62
2022/10/03 06:33:44;;;;;;;14.23;6.57;;;;;;;9.89;83.73;102488.97;3579196;40;20060;-62
2022/10/03 06:36:54;;;;;;;8.57;5.95;;;;;;;9.90;83.74;102488.94;3575222;40;20056;-62
2022/10/03 06:40:10;;;;;;;13.32;6.47;;;;;;;9.91;83.52;102489.81;3580398;40;20044;-62
2022/10/03 06:42:56;;;;;;;10.70;6.95;;;;;;;9.93;84.32;102491.53;3578623;40;20141;-62
2022/10/03 06:45:58;;;;;;;11.25;6.90;;;;;;;9.94;83.59;102495.97;3576766;40;20214;-62
2022/10/03 06:49:13;;;;;;;11.73;7.15;;;;;;;9.96;83.36;102496.81;3575538;40;20087;-62
2022/10/03 06:52:15;;;;;;;15.15;7.45;;;;;;;9.99;84.65;102491.34;3577828;40;20057;-62
2022/10/03 06:55:21;;;;;;;12.15;7.45;;;;;;;10.04;84.43;102493.00;3567987;40;20166;-62
2022/10/03 06:58:30;;;;;;;14.65;7.90;;;;;;;10.07;83.43;102492.88;3579786;40;20045;-62
2022/10/03 07:01:10;;;;;;;14.60;7.28;;;;;;;10.11;83.98;102494.53;3583608;40;20067;-62
2022/10/03 07:04:28;;;;;;;15.65;7.63;;;;;;;10.17;85.15;102499.72;3581431;40;20044;-62
2022/10/03 07:07:48;;;;;;;15.88;7.78;;;;;;;10.23;85.42;102508.44;3578498;40;20061;-63
2022/10/03 07:10:32;;;;;;;14.40;8.38;;;;;;;10.37;85.75;102502.66;3578355;40;20426;-62
2022/10/03 07:13:27;;;;;;;14.35;7.95;;;;;;;10.54;85.86;102503.88;3585789;39;20052;-62
2022/10/03 07:16:20;;;;;;;16.20;8.25;;;;;;;10.68;84.88;102506.94;3583204;39;20145;-63
2022/10/03 07:19:12;;;;;;;15.43;8.30;;;;;;;10.82;84.74;102504.66;3588644;39;20052;-62
2022/10/03 07:22:27;;;;;;;15.02;8.85;;;;;;;11.04;85.12;102501.19;3570507;40;20387;-62
2022/10/03 07:25:36;;;;;;;;;;;;;;;11.25;84.52;102529.09;3579889;40;20051;-63
2022/10/03 07:28:44;;;;;;;19.42;7.65;;;;;;;11.48;83.88;102517.44;3574412;39;19951;-62
2022/10/03 07:31:39;;;;;;;10.98;6.63;;;;;;;11.76;82.94;102523.50;3578256;40;20051;-61
2022/10/03 07:34:51;;;;;;;12.80;6.93;;;;;;;12.03;81.75;102518.88;3582695;40;20128;-62
2022/10/03 07:41:24;;;;;;;15.02;6.95;;;;;;;12.68;82.53;102517.03;3580121;40;20131;-62
2022/10/03 07:44:48;;;;;;;16.08;6.15;;;;;;;12.97;80.46;102520.25;3580268;40;20041;-62
2022/10/03 07:47:42;;;;;;;11.10;5.95;;;;;;;13.20;78.75;102525.50;3577656;40;20125;-62
2022/10/03 07:51:02;;;;;;;11.63;5.65;;;;;;;13.41;77.28;102531.75;3581297;40;20414;-62
2022/10/03 07:54:01;;;;;;;14.27;5.63;;;;;;;13.66;77.33;102533.31;3579511;40;20138;-62
2022/10/03 07:57:09;;;;;;;18.30;10.75;;;;;;;13.94;77.03;102538.28;3579344;40;20271;-62
2022/10/03 08:00:23;;;;;;;10.98;5.72;;;;;;;14.18;75.10;102538.91;3576624;40;20059;-62
2022/10/03 08:03:13;;;;;;;9.13;4.85;;;;;;;14.37;74.95;102547.00;3535600;40;20393;-63
2022/10/03 08:06:10;;;;;;;13.32;4.65;;;;;;;14.53;74.88;102550.72;3536336;40;20153;-62
2022/10/03 08:09:20;;;;;;;9.00;5.05;;;;;;;14.67;73.78;102550.00;3576425;40;20321;-62
2022/10/03 08:12:00;;;;;;;11.73;5.25;;;;;;;14.77;72.87;102550.38;3566384;40;20425;-62
2022/10/03 08:14:46;;;;;;;10.32;5.03;;;;;;;14.86;73.44;102547.19;3581509;40;20052;-62
2022/10/03 08:17:46;;;;;;;11.80;5.30;;;;;;;15.04;73.05;102542.66;3578275;40;20055;-62
2022/10/03 08:20:55;;;;;;;14.98;5.95;;;;;;;15.30;72.35;102549.38;3579250;40;20403;-62
2022/10/03 08:23:58;;;;;;;9.85;4.55;;;;;;;15.51;71.35;102553.63;3578522;40;20059;-62
2022/10/03 08:27:08;;;;;;;11.07;5.00;;;;;;;15.73;72.17;102544.31;3576548;40;20044;-62
2022/10/03 08:30:18;;;;;;;10.52;4.60;;;;;;;15.99;70.03;102548.28;3579856;40;20062;-62
2022/10/03 08:33:07;;;;;;;11.23;4.85;;;;;;;16.21;69.99;102537.06;3572647;40;20053;-62
2022/10/03 08:35:54;;;;;;;10.77;4.65;;;;;;;16.51;67.87;102550.66;3580145;40;20386;-62
2022/10/03 08:39:12;;;;;;;13.35;5.32;;;;;;;16.80;67.99;102548.06;3579909;40;20052;-62
2022/10/03 08:42:12;;;;;;;10.25;4.65;;;;;;;17.09;66.38;102546.28;3547638;40;20046;-62
2022/10/03 08:44:54;;;;;;;9.77;4.82;;;;;;;17.40;67.59;102551.53;3547414;40;20339;-63
2022/10/03 08:48:08;;;;;;;10.90;4.10;;;;;;;17.61;64.37;102551.16;3576350;40;20099;-63
2022/10/03 08:51:33;;;;;;;7.88;3.83;;;;;;;17.75;64.67;102551.13;3576228;40;20113;-63
2022/10/03 08:54:14;;;;;;;7.47;3.60;;;;;;;17.96;62.14;102554.34;3570243;40;20422;-63
2022/10/03 08:57:24;;;;;;;8.05;3.47;;;;;;;18.12;63.23;102559.66;3579458;40;20395;-64
2022/10/03 09:00:20;;;;;;;8.65;3.55;;;;;;;17.73;62.32;102452.47;3586850;39;20125;-64
2022/10/03 09:03:07;;;;;;;8.43;2.88;;;;;;;18.60;60.64;102560.06;3575816;40;20105;-64
2022/10/03 09:06:23;;;;;;;8.90;3.67;;;;;;;18.73;60.49;102552.81;3578661;40;20050;-64
2022/10/03 09:09:42;;;;;;;7.95;3.40;;;;;;;18.26;60.79;102468.91;3581365;40;20048;-64
2022/10/03 09:12:57;;;;;;;8.90;3.38;;;;;;;18.86;60.74;102565.59;3578798;40;20056;-64
2022/10/03 09:16:04;;;;;;;7.88;2.92;;;;;;;19.09;60.28;102564.00;3580567;40;20120;-64
2022/10/03 09:19:19;;;;;;;9.75;3.30;;;;;;;19.09;59.12;102556.69;3577077;40;22023;-64
2022/10/03 09:22:09;;;;;;;6.70;2.45;;;;;;;19.21;58.33;102561.28;3576018;40;20053;-64
2022/10/03 09:25:10;;;;;;;7.47;2.92;;;;;;;19.49;57.06;102553.84;3578390;40;20556;-64
2022/10/03 09:28:28;;;;;;;8.07;2.67;;;;;;;19.63;56.00;102563.75;3577784;40;20060;-64
2022/10/03 09:31:22;;;;;;;7.72;2.90;;;;;;;19.68;57.13;102558.88;3546083;40;20048;-64
2022/10/03 09:34:43;;;;;;;;;;;;;;;19.66;55.61;102548.09;3579962;40;20088;-63
2022/10/03 09:37:57;;;;;;;6.82;2.75;;;;;;;19.91;55.87;102538.94;3577602;40;20267;-63
2022/10/03 09:41:18;;;;;;;9.85;2.50;;;;;;;20.01;54.25;102541.00;3578099;40;20064;-64
2022/10/03 09:44:24;;;;;;;8.05;2.88;;;;;;;19.74;54.99;102533.00;3579181;40;20064;-63
2022/10/03 09:47:45;;;;;;;6.65;1.88;;;;;;;19.63;55.28;102531.91;3570459;40;20069;-63
2022/10/03 09:50:24;;;;;;;6.80;2.30;;;;;;;19.42;55.27;102534.34;3581417;40;20174;-63
2022/10/03 09:53:43;;;;;;;6.55;2.42;;;;;;;19.28;56.11;102528.13;3579394;40;20095;-63
2022/10/03 09:57:02;;;;;;;7.85;2.63;;;;;;;19.18;57.05;102528.78;3574431;40;20048;-63
2022/10/03 09:59:57;;;;;;;5.82;2.47;;;;;;;19.15;55.55;102528.97;3576110;40;20062;-63
2022/10/03 10:03:02;;;;;;;7.20;3.33;;;;;;;19.23;57.50;102529.31;3581485;40;20111;-63
2022/10/03 10:05:58;;;;;;;8.63;2.45;;;;;;;19.25;58.08;102526.47;3576024;40;20133;-63
2022/10/03 10:09:15;;;;;;;8.77;2.80;;;;;;;19.41;57.71;102523.50;3578992;40;20044;-63
2022/10/03 10:11:42;;;;;;;8.38;2.60;;;;;;;19.49;55.99;102521.97;3575614;40;20067;-64
2022/10/03 10:14:57;;;;;;;6.25;2.72;;;;;;;19.51;56.45;102516.44;3579798;40;20052;-63
2022/10/03 10:17:50;;;;;;;;;;;;;;;19.62;57.50;102516.50;3575624;40;20113;-64
2022/10/03 10:20:57;;;;;;;9.45;3.00;;;;;;;19.88;55.56;102530.13;3581020;40;20241;-64
2022/10/03 10:23:36;;;;;;;14.23;3.45;;;;;;;20.06;55.94;102523.28;3581310;40;20052;-64
2022/10/03 10:27:02;;;;;;;8.35;3.28;;;;;;;20.15;54.99;102532.66;3578109;40;20060;-64
2022/10/03 10:29:48;;;;;;;6.57;2.58;;;;;;;20.33;55.07;102527.63;3562342;40;20064;-64
2022/10/03 10:32:53;;;;;;;5.05;2.00;;;;;;;20.48;54.47;102523.72;3577182;40;20417;-64
2022/10/03 10:35:51;;;;;;;8.38;2.28;;;;;;;20.86;53.29;102517.19;3585993;39;20100;-64
2022/10/03 10:38:36;;;;;;;11.48;2.33;;;;;;;21.21;51.38;102513.50;3579936;40;20368;-64
2022/10/03 10:41:47;;;;;;;10.07;2.63;;;;;;;21.51;50.78;102516.56;3576065;40;20061;-65
2022/10/03 10:45:10;;;;;;;7.50;2.00;;;;;;;21.73;48.86;102520.28;3579114;40;20083;-64
2022/10/03 10:48:26;;;;;;;5.65;2.22;;;;;;;21.77;49.11;102516.28;3577583;40;20090;-64
2022/10/03 10:51:16;;;;;;;5.35;1.92;;;;;;;21.72;49.30;102524.84;3582676;40;20370;-64
2022/10/03 10:54:06;;;;;;;7.45;2.38;;;;;;;21.60;47.90;102519.50;3579093;40;20189;-64
2022/10/03 10:57:14;;;;;;;6.45;2.10;;;;;;;21.42;49.74;102517.28;3579421;40;20074;-64
2022/10/03 11:00:04;;;;;;;7.03;1.80;;;;;;;21.42;50.91;102520.03;3578765;39;20360;-64
2022/10/03 11:02:45;;;;;;;8.48;2.17;;;;;;;21.23;51.08;102517.00;3582567;40;20298;-64
2022/10/03 11:06:01;;;;;;;6.70;2.03;;;;;;;21.19;49.38;102515.53;3579148;40;20048;-64
2022/10/03 11:09:11;;;;;;;5.68;1.40;;;;;;;21.10;49.34;102522.59;3578031;40;20391;-64
2022/10/03 11:12:21;;;;;;;2.22;1.40;;;;;;;20.71;48.83;102526.59;3580098;40;20159;-64
2022/10/03 11:15:23;;;;;;;6.35;1.70;;;;;;;20.43;50.34;102515.03;3580305;40;20063;-64
2022/10/03 11:18:39;;;;;;;6.75;1.88;;;;;;;20.22;50.50;102514.81;3583068;40;20105;-64
2022/10/03 11:21:44;;;;;;;9.25;1.88;;;;;;;20.59;50.80;102501.97;3578614;40;20135;-64
2022/10/03 11:24:57;;;;;;;8.38;1.70;;;;;;;20.31;49.91;102502.31;3579859;40;20060;-64
2022/10/03 11:27:54;;;;;;;5.75;1.60;;;;;;;20.04;51.32;102502.53;3578829;40;20547;-64
2022/10/03 11:30:51;;;;;;;7.20;1.90;;;;;;;19.92;50.99;102501.63;3579774;40;20105;-64
2022/10/03 11:34:14;;;;;;;9.05;1.88;;;;;;;19.73;50.01;102506.69;3581177;40;20206;-64
2022/10/03 11:37:14;;;;;;;7.13;1.25;;;;;;;19.62;51.28;102494.69;3581573;40;20137;-64
2022/10/03 11:39:58;;;;;;;5.10;1.50;;;;;;;19.75;50.05;102499.25;3583621;40;20130;-64
2022/10/03 11:43:02;;;;;;;5.45;1.55;;;;;;;20.41;48.42;102492.44;3579084;40;20621;-64
2022/10/03 11:46:07;;;;;;;6.20;1.85;;;;;;;21.21;45.34;102491.63;3588435;40;21113;-64
2022/10/03 11:48:52;;;;;;;5.22;1.40;;;;;;;21.91;42.09;102490.47;3579936;40;20129;-64
2022/10/03 11:51:49;;;;;;;7.30;2.10;;;;;;;22.57;44.01;102498.59;3583106;40;20053;-65
2022/10/03 11:54:41;;;;;;;6.10;1.50;;;;;;;23.28;44.95;102498.78;3581946;40;20048;-64
2022/10/03 11:57:27;;;;;;;3.13;0.93;;;;;;;23.45;40.48;102506.38;3578105;40;20096;-64
2022/10/03 12:00:18;;;;;;;10.65;1.73;;;;;;;22.79;42.78;102497.63;3579024;40;20062;-65
2022/10/03 12:03:09;;;;;;;8.55;1.80;;;;;;;22.14;43.61;102496.78;3578533;40;20052;-65
2022/10/03 12:09:02;;;;;;;4.43;1.52;;;;;;;21.47;44.97;102497.75;3581791;40;20117;-64
2022/10/03 12:12:05;;;;;;;6.07;1.83;;;;;;;21.21;45.26;102497.09;3581572;39;20056;-64
2022/10/03 12:14:45;;;;;;;8.18;1.90;;;;;;;21.21;45.87;102495.22;3579283;40;20106;-64
2022/10/03 12:17:45;;;;;;;5.10;1.55;;;;;;;20.97;46.52;102495.34;3579969;40;20086;-64
2022/10/03 12:21:06;;;;;;;4.28;1.55;;;;;;;20.75;46.89;102489.84;3579980;40;20048;-64
2022/10/03 12:23:52;;;;;;;7.63;2.03;;;;;;;21.01;48.39;102485.03;3556507;40;20125;-64
2022/10/03 12:26:34;;;;;;;6.65;1.90;;;;;;;21.62;47.66;102485.56;3580189;40;20071;-64
2022/10/03 12:29:03;;;;;;;4.97;1.45;;;;;;;22.19;46.04;102475.34;3581194;40;20083;-64
2022/10/03 12:31:41;;;;;;;4.30;1.30;;;;;;;21.90;43.61;102382.81;3578901;39;20112;-65
2022/10/03 12:34:46;;;;;;;5.00;1.40;;;;;;;22.34;42.53;102475.94;3578498;40;20059;-64
2022/10/03 12:37:27;;;;;;;4.72;1.50;;;;;;;21.99;42.60;102471.53;3577753;40;20437;-64
2022/10/03 12:40:23;;;;;;;6.43;1.83;;;;;;;21.52;44.28;102469.03;3581126;40;20092;-64
2022/10/03 12:43:14;;;;;;;4.00;1.17;;;;;;;21.14;44.50;102473.97;3577461;40;20047;-65
2022/10/03 12:45:57;;;;;;;4.78;1.60;;;;;;;20.87;45.69;102467.00;3577131;40;20118;-63
2022/10/03 12:48:32;;;;;;;7.13;1.70;;;;;;;20.69;46.53;102463.00;3581476;40;20051;-63
2022/10/03 12:51:29;;;;;;;3.85;1.50;;;;;;;20.45;46.97;102460.28;3579440;40;20089;-63
2022/10/03 12:54:34;;;;;;;5.57;1.60;;;;;;;20.28;48.24;102467.91;3578220;40;20080;-64
2022/10/03 12:57:49;;;;;;;9.25;2.38;;;;;;;20.21;48.12;102469.38;3578430;40;20044;-64
2022/10/03 13:00:28;;;;;;;7.80;1.67;;;;;;;19.53;49.99;102352.63;3585294;40;20055;-64
2022/10/03 13:03:18;;;;;;;8.85;1.65;;;;;;;20.14;49.98;102455.34;3579800;40;20310;-64
2022/10/03 13:06:36;;;;;;;8.10;1.52;;;;;;;20.08;48.56;102464.00;3578840;40;20051;-65
2022/10/03 13:09:31;;;;;;;4.63;1.42;;;;;;;19.93;48.89;102459.69;3580340;40;20129;-65
2022/10/03 13:12:57;;;;;;;5.03;1.83;;;;;;;19.81;49.13;102456.00;3580019;40;20060;-65
2022/10/03 13:15:51;;;;;;;4.45;1.75;;;;;;;19.75;49.27;102451.00;3564884;40;20052;-65
2022/10/03 13:18:40;;;;;;;6.50;1.75;;;;;;;19.26;49.53;102381.00;3577900;40;20051;-64
2022/10/03 13:22:10;;;;;;;5.53;1.52;;;;;;;19.71;50.47;102450.38;3579907;40;20055;-64
2022/10/03 13:24:57;;;;;;;6.57;2.10;;;;;;;19.82;49.70;102443.22;3580661;40;20068;-66
2022/10/03 13:28:40;;;;;;;6.93;1.60;;;;;;;19.83;51.30;102450.47;3581734;40;20091;-65
2022/10/03 13:31:12;;;;;;;7.15;1.77;;;;;;;19.90;51.32;102432.63;3531236;40;20054;-65
2022/10/03 13:33:54;;;;;;;6.15;1.83;;;;;;;20.34;49.29;102431.06;3575905;40;20073;-65
2022/10/03 13:36:52;;;;;;;3.78;1.30;;;;;;;20.70;48.15;102438.25;3584182;40;20100;-65
2022/10/03 13:39:28;;;;;;;6.80;1.65;;;;;;;21.14;46.11;102430.22;3579234;40;20612;-65
2022/10/03 13:42:18;;;;;;;7.15;1.55;;;;;;;21.59;45.49;102436.53;3582842;40;20088;-64
2022/10/03 13:44:55;;;;;;;5.70;1.63;;;;;;;21.33;46.43;102397.63;3582528;40;20094;-64
2022/10/03 13:47:54;;;;;;;6.45;2.05;;;;;;;21.37;46.00;102439.31;3578186;40;20125;-65
2022/10/03 13:51:00;;;;;;;4.75;1.70;;;;;;;21.02;46.32;102426.63;3577905;40;20052;-65
2022/10/03 13:54:00;;;;;;;6.45;1.73;;;;;;;20.66;48.29;102414.91;3579376;40;20088;-65
2022/10/03 13:56:57;;;;;;;5.18;1.65;;;;;;;20.50;48.43;102419.81;3583474;40;20399;-65
2022/10/03 14:00:10;;;;;;;8.90;2.00;;;;;;;20.27;48.83;102424.34;3582135;40;20083;-65
2022/10/03 14:02:58;;;;;;;5.88;1.90;;;;;;;20.14;49.88;102424.44;3579839;40;20064;-65